createdAt,value
2022-12-17T00:01:06.601Z,-0.30
2022-12-17T00:03:52.799Z,-0.40
2022-12-17T00:06:38.890Z,-0.40
2022-12-17T00:09:24.014Z,-0.40
2022-12-17T00:12:10.050Z,-0.30
2022-12-17T00:14:55.497Z,-0.40
2022-12-17T00:17:41.652Z,-0.40
2022-12-17T00:20:27.849Z,-0.40
2022-12-17T00:23:20.378Z,-0.40
2022-12-17T00:26:10.890Z,-0.30
2022-12-17T00:28:56.961Z,-0.30
2022-12-17T00:31:45.520Z,-0.30
2022-12-17T00:34:31.301Z,-0.40
2022-12-17T00:37:16.710Z,-0.40
2022-12-17T00:40:03.854Z,-0.30
2022-12-17T00:42:49.284Z,-0.40
2022-12-17T00:45:35.002Z,-0.40
2022-12-17T00:48:20.846Z,-0.40
2022-12-17T00:51:07.943Z,-0.40
2022-12-17T00:53:53.253Z,-0.40
2022-12-17T00:56:40.164Z,-0.40
2022-12-17T00:59:25.241Z,-0.40
2022-12-17T01:02:11.356Z,-0.40
2022-12-17T01:04:56.870Z,-0.40
2022-12-17T01:07:42.390Z,-0.40
2022-12-17T01:10:27.737Z,-0.40
2022-12-17T01:13:13.358Z,-0.40
2022-12-17T01:15:58.600Z,-0.40
2022-12-17T01:18:43.922Z,-0.40
2022-12-17T01:21:29.409Z,-0.50
2022-12-17T01:24:14.955Z,-0.50
2022-12-17T01:27:00.263Z,-0.40
2022-12-17T01:29:45.491Z,-0.40
2022-12-17T01:32:30.741Z,-0.40
2022-12-17T01:35:15.889Z,-0.40
2022-12-17T01:38:01.655Z,-0.40
2022-12-17T01:41:00.427Z,-0.40
2022-12-17T01:43:54.278Z,-0.40
2022-12-17T01:46:42.473Z,-0.40
2022-12-17T01:49:29.150Z,-0.40
2022-12-17T01:52:14.997Z,-0.40
2022-12-17T01:55:00.494Z,-0.50
2022-12-17T01:57:46.301Z,-0.50
2022-12-17T02:00:36.625Z,-0.50
2022-12-17T02:03:23.267Z,-0.50
2022-12-17T02:06:37.837Z,-0.50
2022-12-17T02:09:50.509Z,-0.60
2022-12-17T02:12:41.408Z,-0.60
2022-12-17T02:16:01.112Z,-0.60
2022-12-17T02:19:01.495Z,-0.60
2022-12-17T02:21:49.782Z,-0.60
2022-12-17T02:24:44.728Z,-0.60
2022-12-17T02:27:32.576Z,-0.60
2022-12-17T02:30:25.211Z,-0.70
2022-12-17T02:33:11.522Z,-0.60
2022-12-17T02:36:05.979Z,-0.60
2022-12-17T02:38:51.268Z,-0.60
2022-12-17T02:41:50.790Z,-0.60
2022-12-17T02:44:39.066Z,-0.60
2022-12-17T02:47:28.040Z,-0.70
2022-12-17T02:50:34.400Z,-0.70
2022-12-17T02:53:21.868Z,-0.60
2022-12-17T02:56:07.056Z,-0.70
2022-12-17T02:58:55.010Z,-0.70
2022-12-17T03:01:40.677Z,-0.70
2022-12-17T03:04:26.542Z,-0.70
2022-12-17T03:07:11.919Z,-0.70
2022-12-17T03:09:57.362Z,-0.70
2022-12-17T03:12:43.387Z,-0.70
2022-12-17T03:15:28.455Z,-0.70
2022-12-17T03:18:14.360Z,-0.70
2022-12-17T03:20:59.910Z,-0.70
2022-12-17T03:23:45.438Z,-0.70
2022-12-17T03:26:30.917Z,-0.70
2022-12-17T03:29:16.229Z,-0.70
2022-12-17T03:32:01.863Z,-0.70
2022-12-17T03:34:47.441Z,-0.70
2022-12-17T03:37:32.698Z,-0.70
2022-12-17T03:40:18.150Z,-0.70
2022-12-17T03:43:03.758Z,-0.70
2022-12-17T03:45:49.223Z,-0.70
2022-12-17T03:48:34.439Z,-0.70
2022-12-17T03:51:20.440Z,-0.70
2022-12-17T03:54:06.492Z,-0.70
2022-12-17T03:56:52.267Z,-0.70
2022-12-17T03:59:37.905Z,-0.70
2022-12-17T04:02:23.547Z,-0.80
2022-12-17T04:05:08.868Z,-0.80
2022-12-17T04:07:54.042Z,-0.80
2022-12-17T04:10:39.796Z,-0.80
2022-12-17T04:13:25.530Z,-0.80
2022-12-17T04:16:11.139Z,-0.80
2022-12-17T04:18:56.777Z,-0.80
2022-12-17T04:21:42.440Z,-0.80
2022-12-17T04:24:30.099Z,-0.80
2022-12-17T04:27:15.497Z,-0.80
2022-12-17T04:30:00.769Z,-0.80
2022-12-17T04:32:46.310Z,-0.80
2022-12-17T04:35:31.691Z,-0.80
2022-12-17T04:38:16.929Z,-0.80
2022-12-17T04:41:02.394Z,-0.80
2022-12-17T04:43:47.803Z,-0.80
2022-12-17T04:46:33.473Z,-0.80
2022-12-17T04:49:18.838Z,-0.80
2022-12-17T04:52:04.577Z,-0.90
2022-12-17T04:54:49.847Z,-0.90
2022-12-17T04:57:35.330Z,-0.80
2022-12-17T05:00:20.848Z,-0.90
2022-12-17T05:03:06.498Z,-0.90
2022-12-17T05:05:52.130Z,-0.90
2022-12-17T05:08:41.441Z,-0.90
2022-12-17T05:11:27.192Z,-0.90
2022-12-17T05:14:12.698Z,-0.90
2022-12-17T05:16:58.236Z,-0.90
2022-12-17T05:19:43.548Z,-0.90
2022-12-17T05:22:28.966Z,-0.90
2022-12-17T05:25:14.338Z,-1.00
2022-12-17T05:27:59.908Z,-1.00
2022-12-17T05:30:45.387Z,-0.90
2022-12-17T05:33:31.159Z,-0.90
2022-12-17T05:36:19.197Z,-0.90
2022-12-17T05:39:06.379Z,-1.00
2022-12-17T05:41:52.471Z,-1.00
2022-12-17T05:44:37.959Z,-1.00
2022-12-17T05:47:23.540Z,-1.00
2022-12-17T05:50:09.341Z,-1.10
2022-12-17T05:52:54.921Z,-1.10
2022-12-17T05:55:40.432Z,-1.00
2022-12-17T05:58:29.048Z,-1.00
2022-12-17T06:01:19.719Z,-1.00
2022-12-17T06:04:05.265Z,-1.00
2022-12-17T06:06:50.975Z,-1.00
2022-12-17T06:09:36.490Z,-1.00
2022-12-17T06:12:22.122Z,-1.10
2022-12-17T06:15:07.604Z,-1.00
2022-12-17T06:17:53.740Z,-1.10
2022-12-17T06:20:39.263Z,-1.10
2022-12-17T06:23:28.344Z,-1.10
2022-12-17T06:26:15.260Z,-1.10
2022-12-17T06:29:01.513Z,-1.10
2022-12-17T06:31:47.356Z,-1.10
2022-12-17T06:34:32.734Z,-1.10
2022-12-17T06:37:18.227Z,-1.10
2022-12-17T06:40:03.623Z,-1.10
2022-12-17T06:42:48.813Z,-1.10
2022-12-17T06:45:33.915Z,-1.10
2022-12-17T06:48:27.296Z,-1.00
2022-12-17T06:51:13.228Z,-1.00
2022-12-17T06:53:59.561Z,-1.00
2022-12-17T06:56:46.218Z,-1.00
2022-12-17T06:59:31.491Z,-1.00
2022-12-17T07:02:16.938Z,-1.00
2022-12-17T07:05:02.462Z,-1.00
2022-12-17T07:07:48.053Z,-1.00
2022-12-17T07:10:33.928Z,-1.00
2022-12-17T07:13:24.179Z,-1.00
2022-12-17T07:16:10.472Z,-1.00
2022-12-17T07:18:56.698Z,-1.00
2022-12-17T07:21:42.813Z,-0.90
2022-12-17T07:24:28.353Z,-0.90
2022-12-17T07:27:14.192Z,-0.90
2022-12-17T07:30:00.139Z,-0.90
2022-12-17T07:32:45.541Z,-1.00
2022-12-17T07:35:30.674Z,-0.90
2022-12-17T07:38:21.429Z,-0.90
2022-12-17T07:41:07.149Z,-1.00
2022-12-17T07:43:53.627Z,-1.00
2022-12-17T07:46:39.846Z,-1.00
2022-12-17T07:49:26.182Z,-1.00
2022-12-17T07:52:12.128Z,-1.00
2022-12-17T07:54:57.852Z,-1.00
2022-12-17T07:57:43.746Z,-0.90
2022-12-17T08:00:29.635Z,-0.90
2022-12-17T08:03:18.873Z,-0.90
2022-12-17T08:06:04.985Z,-0.90
2022-12-17T08:08:50.515Z,-0.90
2022-12-17T08:11:36.278Z,-0.90
2022-12-17T08:14:21.893Z,-0.90
2022-12-17T08:17:07.542Z,-0.80
2022-12-17T08:19:53.088Z,-0.80
2022-12-17T08:22:38.937Z,-0.80
2022-12-17T08:25:25.029Z,-0.80
2022-12-17T08:28:49.109Z,-0.80
2022-12-17T08:31:23.964Z,-0.80
2022-12-17T08:34:09.316Z,-0.80
2022-12-17T08:36:55.027Z,-0.80
2022-12-17T08:39:40.900Z,-0.80
2022-12-17T08:42:26.278Z,-0.70
2022-12-17T08:45:11.646Z,-0.80
2022-12-17T08:48:02.164Z,-0.70
2022-12-17T08:50:49.205Z,-0.70
2022-12-17T08:53:35.371Z,-0.70
2022-12-17T08:56:20.966Z,-0.70
2022-12-17T08:59:06.661Z,-0.70
2022-12-17T09:01:52.082Z,-0.70
2022-12-17T09:04:37.433Z,-0.70
2022-12-17T09:07:22.670Z,-0.60
2022-12-17T09:10:08.288Z,-0.60
2022-12-17T09:12:53.683Z,-0.70
2022-12-17T09:15:38.795Z,-0.70
2022-12-17T09:18:24.023Z,-0.70
2022-12-17T09:21:13.973Z,-0.70
2022-12-17T09:24:00.168Z,-0.70
2022-12-17T09:26:45.215Z,-0.80
2022-12-17T09:29:30.443Z,-0.80
2022-12-17T09:32:15.860Z,-0.80
2022-12-17T09:35:00.936Z,-0.90
2022-12-17T09:37:46.554Z,-0.90
2022-12-17T09:40:39.776Z,-0.90
2022-12-17T09:43:47.754Z,-0.90
2022-12-17T09:46:44.002Z,-0.90
2022-12-17T09:49:38.360Z,-0.90
2022-12-17T09:52:45.158Z,-0.90
2022-12-17T09:55:52.985Z,-0.90
2022-12-17T09:58:40.921Z,-1.00
2022-12-17T10:01:41.401Z,-1.00
2022-12-17T10:04:36.163Z,-1.00
2022-12-17T10:07:22.731Z,-1.00
2022-12-17T10:10:10.548Z,-1.00
2022-12-17T10:12:55.809Z,-1.00
2022-12-17T10:15:41.287Z,-1.00
2022-12-17T10:18:31.400Z,-1.10
2022-12-17T10:21:19.793Z,-1.00
2022-12-17T10:24:05.087Z,-1.00
2022-12-17T10:26:52.468Z,-1.10
2022-12-17T10:29:47.674Z,-1.10
2022-12-17T10:32:33.540Z,-1.10
2022-12-17T10:35:41.994Z,-1.10
2022-12-17T10:38:39.689Z,-1.00
2022-12-17T10:41:45.674Z,-1.00
2022-12-17T10:44:51.938Z,-1.00
2022-12-17T10:47:40.028Z,-1.00
2022-12-17T10:50:39.140Z,-1.00
2022-12-17T10:53:37.642Z,-1.00
2022-12-17T10:56:24.079Z,-0.90
2022-12-17T10:59:12.478Z,-1.00
2022-12-17T11:02:00.604Z,-1.00
2022-12-17T11:04:50.618Z,-1.10
2022-12-17T11:07:40.928Z,-1.10
2022-12-17T11:10:35.922Z,-1.20
2022-12-17T11:13:27.033Z,-1.20
2022-12-17T11:16:16.755Z,-1.30
2022-12-17T11:19:17.262Z,-1.40
2022-12-17T11:22:09.135Z,-1.40
2022-12-17T11:25:05.679Z,-1.40
2022-12-17T11:28:01.898Z,-1.40
2022-12-17T11:30:48.285Z,-1.50
2022-12-17T11:33:42.975Z,-1.50
2022-12-17T11:36:40.018Z,-1.50
2022-12-17T11:39:34.654Z,-1.40
2022-12-17T11:42:33.000Z,-1.40
2022-12-17T11:45:48.632Z,-1.40
2022-12-17T11:48:51.785Z,-1.40
2022-12-17T11:52:27.445Z,-1.50
2022-12-17T11:55:27.674Z,-1.40
2022-12-17T11:58:19.423Z,-1.40
2022-12-17T12:01:27.944Z,-1.40
2022-12-17T12:04:23.111Z,-1.50
2022-12-17T12:07:43.277Z,-1.50
2022-12-17T12:10:46.047Z,-1.60
2022-12-17T12:13:51.847Z,-1.60
2022-12-17T12:17:06.808Z,-1.60
2022-12-17T12:20:00.952Z,-1.60
2022-12-17T12:23:06.623Z,-1.70
2022-12-17T12:26:26.379Z,-1.80
2022-12-17T12:29:21.120Z,-1.90
2022-12-17T12:32:25.097Z,-1.80
2022-12-17T12:35:13.577Z,-1.80
2022-12-17T12:37:59.404Z,-1.80
2022-12-17T12:41:06.080Z,-1.80
2022-12-17T12:43:58.542Z,-1.80
2022-12-17T12:46:47.039Z,-1.90
2022-12-17T12:49:40.431Z,-1.90
2022-12-17T12:52:29.620Z,-1.90
2022-12-17T12:55:15.381Z,-1.90
2022-12-17T12:58:20.967Z,-1.90
2022-12-17T13:01:06.381Z,-1.80
2022-12-17T13:04:15.072Z,-1.70
2022-12-17T13:06:56.987Z,-1.60
2022-12-17T13:09:29.376Z,-1.60
2022-12-17T13:12:03.943Z,-1.50
2022-12-17T13:14:35.312Z,-1.60
2022-12-17T13:17:28.287Z,-1.70
2022-12-17T13:19:58.083Z,-1.80
2022-12-17T13:22:24.877Z,-1.80
2022-12-17T13:24:57.149Z,-1.90
2022-12-17T13:27:31.502Z,-2.00
2022-12-17T13:30:11.815Z,-2.00
2022-12-17T13:32:43.441Z,-2.10
2022-12-17T13:35:38.276Z,-2.10
2022-12-17T13:38:29.729Z,-2.20
2022-12-17T13:41:16.264Z,-2.30
2022-12-17T13:43:50.560Z,-2.40
2022-12-17T13:46:23.403Z,-2.50
2022-12-17T13:48:59.911Z,-2.50
2022-12-17T13:51:30.271Z,-2.50
2022-12-17T13:53:59.437Z,-2.50
2022-12-17T13:56:27.578Z,-2.40
2022-12-17T13:58:56.427Z,-2.50
2022-12-17T14:01:26.195Z,-2.40
2022-12-17T14:04:08.216Z,-2.40
2022-12-17T14:06:38.335Z,-2.50
2022-12-17T14:09:05.614Z,-2.60
2022-12-17T14:11:52.352Z,-2.60
2022-12-17T14:14:36.293Z,-2.60
2022-12-17T14:17:03.507Z,-2.60
2022-12-17T14:19:33.416Z,-2.60
2022-12-17T14:22:01.354Z,-2.60
2022-12-17T14:24:29.349Z,-2.70
2022-12-17T14:26:59.555Z,-2.70
2022-12-17T14:29:32.398Z,-2.80
2022-12-17T14:32:02.623Z,-2.80
2022-12-17T14:34:41.041Z,-2.80
2022-12-17T14:37:17.530Z,-2.90
2022-12-17T14:39:46.740Z,-3.00
2022-12-17T14:42:25.911Z,-3.00
2022-12-17T14:45:06.252Z,-3.10
2022-12-17T14:47:35.286Z,-3.10
2022-12-17T14:50:30.182Z,-3.10
2022-12-17T14:52:59.250Z,-3.20
2022-12-17T14:55:55.948Z,-3.20
2022-12-17T14:58:25.369Z,-3.20
2022-12-17T15:01:12.069Z,-3.20
2022-12-17T15:03:41.893Z,-3.20
2022-12-17T15:06:11.350Z,-3.30
2022-12-17T15:08:43.597Z,-3.30
2022-12-17T15:11:12.541Z,-3.30
2022-12-17T15:13:39.383Z,-3.30
2022-12-17T15:16:06.426Z,-3.30
2022-12-17T15:18:33.458Z,-3.30
2022-12-17T15:21:01.813Z,-3.40
2022-12-17T15:23:30.015Z,-3.40
2022-12-17T15:25:56.761Z,-3.40
2022-12-17T15:28:26.431Z,-3.50
2022-12-17T15:30:53.290Z,-3.50
2022-12-17T15:33:20.345Z,-3.50
2022-12-17T15:35:47.200Z,-3.50
2022-12-17T15:38:13.936Z,-3.50
2022-12-17T15:40:41.640Z,-3.60
2022-12-17T15:43:12.000Z,-3.60
2022-12-17T15:46:00.330Z,-3.60
2022-12-17T15:48:27.178Z,-3.60
2022-12-17T15:50:54.133Z,-3.60
2022-12-17T15:53:20.895Z,-3.70
2022-12-17T15:55:47.711Z,-3.70
2022-12-17T15:58:14.747Z,-3.70
2022-12-17T16:00:41.516Z,-3.70
2022-12-17T16:03:08.397Z,-3.80
2022-12-17T16:05:35.325Z,-3.80
2022-12-17T16:08:03.074Z,-3.80
2022-12-17T16:10:30.378Z,-3.90
2022-12-17T16:12:57.580Z,-4.00
2022-12-17T16:15:24.796Z,-4.00
2022-12-17T16:17:51.820Z,-4.10
2022-12-17T16:20:19.745Z,-4.10
2022-12-17T16:22:46.844Z,-4.10
2022-12-17T16:25:13.762Z,-4.20
2022-12-17T16:27:40.677Z,-4.20
2022-12-17T16:30:08.041Z,-4.20
2022-12-17T16:32:37.528Z,-4.30
2022-12-17T16:35:05.258Z,-4.30
2022-12-17T16:37:32.525Z,-4.40
2022-12-17T16:40:00.352Z,-4.40
2022-12-17T16:42:28.050Z,-4.50
2022-12-17T16:44:54.934Z,-4.50
2022-12-17T16:47:23.122Z,-4.50
2022-12-17T16:49:50.620Z,-4.50
2022-12-17T16:52:17.491Z,-4.60
2022-12-17T16:54:44.216Z,-4.70
2022-12-17T16:57:11.136Z,-4.70
2022-12-17T16:59:37.909Z,-4.70
2022-12-17T17:02:07.554Z,-4.80
2022-12-17T17:04:34.361Z,-4.80
2022-12-17T17:07:01.175Z,-4.90
2022-12-17T17:09:28.102Z,-4.90
2022-12-17T17:11:56.521Z,-4.90
2022-12-17T17:17:18.154Z,-5.00
2022-12-17T17:19:44.890Z,-5.00
2022-12-17T17:22:11.637Z,-5.10
2022-12-17T17:24:38.419Z,-5.10
2022-12-17T17:27:05.234Z,-5.10
2022-12-17T17:29:32.046Z,-5.10
2022-12-17T17:32:10.459Z,-5.20
2022-12-17T17:34:38.676Z,-5.20
2022-12-17T17:37:05.436Z,-5.20
2022-12-17T17:39:34.000Z,-5.20
2022-12-17T17:42:01.131Z,-5.20
2022-12-17T17:44:27.880Z,-5.30
2022-12-17T17:46:54.699Z,-5.30
2022-12-17T17:49:22.222Z,-5.30
2022-12-17T17:52:08.879Z,-5.40
2022-12-17T17:54:36.275Z,-5.40
2022-12-17T17:57:03.029Z,-5.40
2022-12-17T17:59:33.636Z,-5.50
2022-12-17T18:02:01.049Z,-5.50
2022-12-17T18:04:28.597Z,-5.50
2022-12-17T18:07:24.070Z,-5.60
2022-12-17T18:09:42.408Z,-5.60
2022-12-17T18:12:27.989Z,-5.60
2022-12-17T18:17:42.061Z,-5.70
2022-12-17T18:20:09.710Z,-5.70
2022-12-17T18:22:37.220Z,-5.70
2022-12-17T18:25:04.856Z,-5.80
2022-12-17T18:27:31.703Z,-5.80
2022-12-17T18:29:58.686Z,-5.80
2022-12-17T18:32:25.714Z,-5.80
2022-12-17T18:34:52.654Z,-5.90
2022-12-17T18:37:19.584Z,-5.90
2022-12-17T18:39:46.367Z,-5.90
2022-12-17T18:42:32.085Z,-5.90
2022-12-17T18:44:58.834Z,-5.90
2022-12-17T18:47:25.952Z,-5.90
2022-12-17T18:57:03.322Z,-6.00
2022-12-17T18:59:31.001Z,-6.10
2022-12-17T19:01:58.854Z,-6.10
2022-12-17T19:04:26.602Z,-6.10
2022-12-17T19:06:54.213Z,-6.10
2022-12-17T19:09:28.061Z,-6.20
2022-12-17T19:11:55.630Z,-6.20
2022-12-17T19:14:23.466Z,-6.20
2022-12-17T19:16:51.791Z,-6.20
2022-12-17T19:19:19.359Z,-6.30
2022-12-17T19:21:46.739Z,-6.30
2022-12-17T19:24:16.582Z,-6.30
2022-12-17T19:26:44.078Z,-6.30
2022-12-17T19:29:13.155Z,-6.30
2022-12-17T19:31:40.565Z,-6.40
2022-12-17T19:34:10.772Z,-6.40
2022-12-17T19:36:39.011Z,-6.40
2022-12-17T19:39:08.239Z,-6.40
2022-12-17T19:41:35.373Z,-6.50
2022-12-17T19:44:05.565Z,-6.50
2022-12-17T19:46:35.327Z,-6.50
2022-12-17T19:49:03.943Z,-6.50
2022-12-17T19:51:32.200Z,-6.60
2022-12-17T19:54:06.380Z,-6.60
2022-12-17T19:56:35.289Z,-6.60
2022-12-17T19:59:07.011Z,-6.60
2022-12-17T20:01:41.094Z,-6.60
2022-12-17T20:04:11.033Z,-6.60
2022-12-17T20:06:37.768Z,-6.60
2022-12-17T20:09:06.208Z,-6.70
2022-12-17T20:11:33.419Z,-6.70
2022-12-17T20:14:20.772Z,-6.70
2022-12-17T20:16:54.689Z,-6.70
2022-12-17T20:19:24.254Z,-6.70
2022-12-17T20:21:51.087Z,-6.70
2022-12-17T20:24:18.260Z,-6.70
2022-12-17T20:26:46.363Z,-6.80
2022-12-17T20:29:13.210Z,-6.80
2022-12-17T20:31:42.351Z,-6.80
2022-12-17T20:34:14.576Z,-6.80
2022-12-17T20:36:42.318Z,-6.80
2022-12-17T20:39:10.010Z,-6.80
2022-12-17T20:41:37.011Z,-6.90
2022-12-17T20:44:06.513Z,-6.90
2022-12-17T20:46:34.100Z,-6.90
2022-12-17T20:49:01.003Z,-6.90
2022-12-17T20:51:30.458Z,-6.90
2022-12-17T20:53:59.002Z,-6.90
2022-12-17T20:56:28.135Z,-6.90
2022-12-17T20:58:57.016Z,-6.90
2022-12-17T21:01:25.743Z,-6.90
2022-12-17T21:03:54.886Z,-6.90
2022-12-17T21:06:25.425Z,-6.90
2022-12-17T21:08:53.773Z,-6.90
2022-12-17T21:11:24.013Z,-6.90
2022-12-17T21:13:51.411Z,-6.90
2022-12-17T21:16:29.944Z,-6.90
2022-12-17T21:18:58.953Z,-6.90
2022-12-17T21:21:29.208Z,-6.90
2022-12-17T21:23:57.077Z,-6.90
2022-12-17T21:26:29.229Z,-6.90
2022-12-17T21:28:57.114Z,-6.90
2022-12-17T21:31:35.537Z,-7.00
2022-12-17T21:34:04.684Z,-7.00
2022-12-17T21:36:34.104Z,-7.00
2022-12-17T21:39:02.382Z,-7.00
2022-12-17T21:41:39.271Z,-7.00
2022-12-17T21:44:12.284Z,-7.00
2022-12-17T21:46:39.836Z,-7.00
2022-12-17T21:49:06.721Z,-7.00
2022-12-17T21:51:33.734Z,-7.00
2022-12-17T21:54:02.896Z,-7.00
2022-12-17T21:56:36.141Z,-7.00
2022-12-17T21:59:03.114Z,-7.00
2022-12-17T22:01:32.999Z,-7.00
2022-12-17T22:04:02.128Z,-7.00
2022-12-17T22:06:36.362Z,-7.00
2022-12-17T22:09:17.555Z,-7.00
2022-12-17T22:12:15.747Z,-7.00
2022-12-17T22:14:42.671Z,-7.00
2022-12-17T22:17:09.438Z,-7.00
2022-12-17T22:19:36.268Z,-7.00
2022-12-17T22:22:03.100Z,-7.00
2022-12-17T22:24:30.225Z,-7.00
2022-12-17T22:27:03.572Z,-7.00
2022-12-17T22:30:03.203Z,-7.00
2022-12-17T22:32:48.624Z,-7.00
2022-12-17T22:36:54.652Z,-7.00
2022-12-17T22:39:57.382Z,-7.00
2022-12-17T22:44:30.557Z,-7.00
2022-12-17T22:44:46.798Z,-7.00
2022-12-17T22:46:24.700Z,-7.00
2022-12-17T22:48:51.517Z,-7.00
2022-12-17T22:51:26.645Z,-7.00
2022-12-17T22:54:06.136Z,-7.00
2022-12-17T22:56:55.277Z,-7.00
2022-12-17T22:59:21.395Z,-7.00
2022-12-17T23:01:48.167Z,-7.00
2022-12-17T23:04:16.388Z,-7.00
2022-12-17T23:06:45.403Z,-7.00
2022-12-17T23:09:19.051Z,-7.00
2022-12-17T23:11:48.013Z,-7.00
2022-12-17T23:14:15.259Z,-7.00
2022-12-17T23:16:42.314Z,-7.00
2022-12-17T23:19:09.835Z,-7.00
2022-12-17T23:21:36.654Z,-7.10
2022-12-17T23:24:04.703Z,-7.10
2022-12-17T23:26:34.624Z,-7.10
2022-12-17T23:29:04.852Z,-7.00
2022-12-17T23:31:36.538Z,-7.10
2022-12-17T23:34:04.596Z,-7.00
2022-12-17T23:36:31.562Z,-7.10
2022-12-17T23:38:59.216Z,-7.10
2022-12-17T23:41:29.521Z,-7.10
2022-12-17T23:43:57.775Z,-7.10
2022-12-17T23:46:26.329Z,-7.20
2022-12-17T23:48:53.434Z,-7.20
2022-12-17T23:51:22.706Z,-7.20
2022-12-17T23:53:49.790Z,-7.30
2022-12-17T23:56:22.389Z,-7.30
2022-12-17T23:58:52.861Z,-7.30
